Meteo Giornale » Osservazioni meteo Italia » Bari-Palese Macchie

ore: 11:20 - Osservazioni Meteo Bari-Palese Macchie
Lat. 41° 8' N Lon. 16° 47' E Alt. 34 metri s.l.m.

sereno Europe/Rome

26 °C

Sereno

Temp. 24 Ore

21 °C

27 °C

Nord

22.2 Km/h

Dew point 19 °C

Umidità 65 %

Visibilità  10 Km

Il sole sorge alle ore 05:18

Il sole tramonta alle ore 20:30

Data e Ora Cielo e Fenomeni T °C DP °C Um. % Pres. hPa Vis. km Vento km/h
Oggi h: 11:20 sereno Sereno 26 19 65 1015 10 N 22.2
Oggi h: 10:50 sereno Sereno 26 19 65 1015 10 N 22.2
Oggi h: 10:20 sereno Sereno 25 19 69 1015 10 N 20.3
Oggi h: 09:50 sereno Sereno 25 19 69 1015 10 N 22.2
Oggi h: 09:20 sereno Sereno 25 19 69 1015 10 N/NO 16.7
Oggi h: 08:50 sereno Sereno 25 19 69 1014 10 N/NO 18.5
Oggi h: 08:20 sereno Sereno 24 20 78 1014 10 N/NO 16.7
Oggi h: 07:50 sereno Sereno 24 20 78 1014 10 SO 16.7
Oggi h: 07:20 sereno Sereno 23 19 78 1014 10 NO 16.7
Oggi h: 06:50 sereno Sereno 22 19 83 1014 10 NO 13
Oggi h: 06:20 sereno Sereno 21 18 82 1013 10 O/NO 14.8
Oggi h: 05:50 sereno Sereno 21 18 82 1012 10 O/NO 13
Oggi h: 05:20 sereno Sereno 21 18 82 1012 10 NO 14.8
Oggi h: 04:50 sereno Sereno 21 18 82 1012 10 NO 13
Oggi h: 04:20 sereno Sereno 21 18 82 1012 10 NO 13
Oggi h: 03:50 sereno Sereno 21 18 82 1012 10 NO 13
Oggi h: 03:20 sereno Sereno 22 17 73 1012 10 NO 16.7
Oggi h: 02:50 sereno Sereno 22 17 73 1012 10 NO 16.7
Oggi h: 02:20 sereno Sereno 22 17 73 1012 10 NO 16.7
Oggi h: 01:50 sereno Sereno 22 17 73 1012 10 NO 14.8
Oggi h: 01:20 sereno Sereno 22 17 73 1012 10 O/NO 14.8
Oggi h: 00:50 sereno Sereno 23 17 68 1012 10 O/NO 13
Oggi h: 00:20 sereno Sereno 23 17 68 1012 10 O/NO 13
Ieri h: 23:50 sereno Sereno 23 17 68 1012 10 O/NO 13
Ieri h: 23:20 sereno Sereno 23 17 68 1013 10 O/NO 13
Ieri h: 22:50 sereno Sereno 23 17 68 1013 10 O/NO 9.3
Ieri h: 21:50 sereno Sereno 24 19 73 1012 10 O/NO 9.3
Ieri h: 21:20 sereno Sereno 24 20 78 1012 10 N 3.7
Ieri h: 20:50 sereno Sereno 24 20 78 1012 10 N 5.5
Ieri h: 20:20 sereno Sereno 24 19 73 1012 10 N/NO 9.3
Ieri h: 19:50 sereno Sereno 25 19 69 1012 10 N 14.8
Ieri h: 19:20 sereno Sereno 25 19 69 1012 10 N 16.7
Ieri h: 18:50 sereno Sereno 26 17 57 1011 10 N 16.7
Ieri h: 18:20 sereno Sereno 26 17 57 1011 10 N 22.2
Ieri h: 17:50 sereno Sereno 26 17 57 1011 10 N 20.3
Ieri h: 17:20 sereno Sereno 26 16 54 1011 10 N 22.2
Ieri h: 16:50 sereno Sereno 26 19 65 1011 10 N 22.2
Ieri h: 16:20 sereno Sereno 26 20 69 1011 10 N 22.2
Ieri h: 14:50 poco_nuvoloso Poco Nuvoloso 26 20 69 1011 10 N 24
Ieri h: 14:20 poco_nuvoloso Poco Nuvoloso 26 20 69 1011 10 N 24
Ieri h: 13:50 poco_nuvoloso Poco Nuvoloso 26 19 65 1011 10 N 22.2
Ieri h: 13:20 poco_nuvoloso Poco Nuvoloso 26 19 65 1011 10 N 22.2
Ieri h: 12:50 poco_nuvoloso Poco Nuvoloso 27 18 57 1011 10 N 22.2
Ieri h: 12:20 poco_nuvoloso Poco Nuvoloso 26 17 57 1012 10 N 20.3
Ieri h: 11:50 poco_nuvoloso Poco Nuvoloso 26 17 57 1012 10 N 20.3